New Laguna, New Mexico
Current Conditions -  °F | °C
As of 11:17 PM on Saturday 22 Nov 2014 (Local Time) from KGNT Reporting Station
Scattered Clouds Scattered Clouds  
Wind Chill: 37°   Ceiling: Unl
Heat Index: 37°   Visibility: 10mi
Dew Point: 16°   Wind: 3mph
Humidity: 41%   Direction: 150°SSE
Pressure: 29.91"   Gusts: NA
Location:  35.04°N, 107.42°W
Report Text: KGNT 230617Z AUTO 15003KT 10SM SCT085 03/M09 A2991 RMK AO2
Loading
Personal Weather Stations






























Interactive Weather Map New forecast layout! Learn more

10-Day Weather Forecast

Advertisements
Track Severe Weather on mobile